sensor_id;sensor_type;location;lat;lon;timestamp;temperature;humidity
37158;DHT22;23050;51.776;22.638;2022-08-19T00:01:47;19.60;99.90
37158;DHT22;23050;51.776;22.638;2022-08-19T00:04:14;19.50;99.90
37158;DHT22;23050;51.776;22.638;2022-08-19T00:06:42;19.50;99.90
37158;DHT22;23050;51.776;22.638;2022-08-19T00:09:11;19.50;99.90
37158;DHT22;23050;51.776;22.638;2022-08-19T00:11:38;19.50;99.90
37158;DHT22;23050;51.776;22.638;2022-08-19T00:14:09;19.50;99.90
37158;DHT22;23050;51.776;22.638;2022-08-19T00:16:39;19.40;99.90
37158;DHT22;23050;51.776;22.638;2022-08-19T00:19:05;19.40;99.90
37158;DHT22;23050;51.776;22.638;2022-08-19T00:21:31;19.40;99.90
37158;DHT22;23050;51.776;22.638;2022-08-19T00:23:57;19.40;99.90
37158;DHT22;23050;51.776;22.638;2022-08-19T00:26:27;19.40;99.90
37158;DHT22;23050;51.776;22.638;2022-08-19T00:28:53;19.30;99.90
37158;DHT22;23050;51.776;22.638;2022-08-19T00:31:19;19.30;99.90
37158;DHT22;23050;51.776;22.638;2022-08-19T00:33:44;19.30;99.90
37158;DHT22;23050;51.776;22.638;2022-08-19T00:36:10;19.30;99.90
37158;DHT22;23050;51.776;22.638;2022-08-19T00:38:38;19.30;99.90
37158;DHT22;23050;51.776;22.638;2022-08-19T00:41:06;19.20;99.90
37158;DHT22;23050;51.776;22.638;2022-08-19T00:43:32;19.20;99.90
37158;DHT22;23050;51.776;22.638;2022-08-19T00:45:58;19.20;99.90
37158;DHT22;23050;51.776;22.638;2022-08-19T00:48:24;19.20;99.90
37158;DHT22;23050;51.776;22.638;2022-08-19T00:50:50;19.10;99.90
37158;DHT22;23050;51.776;22.638;2022-08-19T00:53:20;19.10;99.90
37158;DHT22;23050;51.776;22.638;2022-08-19T00:55:48;19.10;99.90
37158;DHT22;23050;51.776;22.638;2022-08-19T00:58:17;19.10;99.90
37158;DHT22;23050;51.776;22.638;2022-08-19T01:00:46;19.10;99.90
37158;DHT22;23050;51.776;22.638;2022-08-19T01:03:15;19.10;99.90
37158;DHT22;23050;51.776;22.638;2022-08-19T01:05:44;19.10;99.90
37158;DHT22;23050;51.776;22.638;2022-08-19T01:08:11;19.00;99.90
37158;DHT22;23050;51.776;22.638;2022-08-19T01:10:41;19.00;99.90
37158;DHT22;23050;51.776;22.638;2022-08-19T01:13:07;19.10;99.90
37158;DHT22;23050;51.776;22.638;2022-08-19T01:15:38;19.00;99.90
37158;DHT22;23050;51.776;22.638;2022-08-19T01:18:09;19.00;99.90
37158;DHT22;23050;51.776;22.638;2022-08-19T01:20:36;19.00;99.90
37158;DHT22;23050;51.776;22.638;2022-08-19T01:23:01;19.00;99.90
37158;DHT22;23050;51.776;22.638;2022-08-19T01:25:39;19.00;99.90
37158;DHT22;23050;51.776;22.638;2022-08-19T01:28:07;19.00;99.90
37158;DHT22;23050;51.776;22.638;2022-08-19T01:30:34;19.00;99.90
37158;DHT22;23050;51.776;22.638;2022-08-19T01:33:01;18.90;99.90
37158;DHT22;23050;51.776;22.638;2022-08-19T01:35:29;18.90;99.90
37158;DHT22;23050;51.776;22.638;2022-08-19T01:38:07;18.90;99.90
37158;DHT22;23050;51.776;22.638;2022-08-19T01:40:35;18.90;99.90
37158;DHT22;23050;51.776;22.638;2022-08-19T01:43:02;18.90;99.90
37158;DHT22;23050;51.776;22.638;2022-08-19T01:45:29;18.80;99.90
37158;DHT22;23050;51.776;22.638;2022-08-19T01:47:56;18.80;99.90
37158;DHT22;23050;51.776;22.638;2022-08-19T01:50:22;18.70;99.90
37158;DHT22;23050;51.776;22.638;2022-08-19T01:52:47;18.70;99.90
37158;DHT22;23050;51.776;22.638;2022-08-19T01:55:16;18.70;99.90
37158;DHT22;23050;51.776;22.638;2022-08-19T01:57:50;18.70;99.90
37158;DHT22;23050;51.776;22.638;2022-08-19T02:00:19;18.60;99.90
37158;DHT22;23050;51.776;22.638;2022-08-19T02:02:44;18.60;99.90
37158;DHT22;23050;51.776;22.638;2022-08-19T02:05:11;18.60;99.90
37158;DHT22;23050;51.776;22.638;2022-08-19T02:07:39;18.60;99.90
37158;DHT22;23050;51.776;22.638;2022-08-19T02:10:08;18.60;99.90
37158;DHT22;23050;51.776;22.638;2022-08-19T02:12:34;18.60;99.90
37158;DHT22;23050;51.776;22.638;2022-08-19T02:15:00;18.60;99.90
37158;DHT22;23050;51.776;22.638;2022-08-19T02:17:28;18.60;99.90
37158;DHT22;23050;51.776;22.638;2022-08-19T02:19:57;18.50;99.90
37158;DHT22;23050;51.776;22.638;2022-08-19T02:22:23;18.50;99.90
37158;DHT22;23050;51.776;22.638;2022-08-19T02:24:51;18.50;99.90
37158;DHT22;23050;51.776;22.638;2022-08-19T02:27:17;18.50;99.90
37158;DHT22;23050;51.776;22.638;2022-08-19T02:29:43;18.40;99.90
37158;DHT22;23050;51.776;22.638;2022-08-19T02:32:10;18.40;99.90
37158;DHT22;23050;51.776;22.638;2022-08-19T02:34:36;18.40;99.90
37158;DHT22;23050;51.776;22.638;2022-08-19T02:37:01;18.40;99.90
37158;DHT22;23050;51.776;22.638;2022-08-19T02:39:27;18.40;99.90
37158;DHT22;23050;51.776;22.638;2022-08-19T02:41:53;18.30;99.90
37158;DHT22;23050;51.776;22.638;2022-08-19T02:44:18;18.40;99.90
37158;DHT22;23050;51.776;22.638;2022-08-19T02:46:46;18.30;99.90
37158;DHT22;23050;51.776;22.638;2022-08-19T02:49:12;18.30;99.90
37158;DHT22;23050;51.776;22.638;2022-08-19T02:51:42;18.30;99.90
37158;DHT22;23050;51.776;22.638;2022-08-19T02:54:09;18.30;99.90
37158;DHT22;23050;51.776;22.638;2022-08-19T02:56:37;18.30;99.90
37158;DHT22;23050;51.776;22.638;2022-08-19T02:59:04;18.30;99.90
37158;DHT22;23050;51.776;22.638;2022-08-19T03:01:37;18.30;99.90
37158;DHT22;23050;51.776;22.638;2022-08-19T03:04:05;18.30;99.90
37158;DHT22;23050;51.776;22.638;2022-08-19T03:06:35;18.30;99.90
37158;DHT22;23050;51.776;22.638;2022-08-19T03:09:01;18.30;99.90
37158;DHT22;23050;51.776;22.638;2022-08-19T03:11:31;18.20;99.90
37158;DHT22;23050;51.776;22.638;2022-08-19T03:13:57;18.20;99.90
37158;DHT22;23050;51.776;22.638;2022-08-19T03:16:25;18.20;99.90
37158;DHT22;23050;51.776;22.638;2022-08-19T03:18:52;18.10;99.90
37158;DHT22;23050;51.776;22.638;2022-08-19T03:21:24;18.10;99.90
37158;DHT22;23050;51.776;22.638;2022-08-19T03:23:53;18.10;99.90
37158;DHT22;23050;51.776;22.638;2022-08-19T03:26:19;18.10;99.90
37158;DHT22;23050;51.776;22.638;2022-08-19T03:28:45;18.10;99.90
37158;DHT22;23050;51.776;22.638;2022-08-19T03:31:17;18.10;99.90
37158;DHT22;23050;51.776;22.638;2022-08-19T03:33:44;18.10;99.90
37158;DHT22;23050;51.776;22.638;2022-08-19T03:36:13;18.10;99.90
37158;DHT22;23050;51.776;22.638;2022-08-19T03:38:41;18.10;99.90
37158;DHT22;23050;51.776;22.638;2022-08-19T03:41:14;18.10;99.90
37158;DHT22;23050;51.776;22.638;2022-08-19T03:43:41;18.10;99.90
37158;DHT22;23050;51.776;22.638;2022-08-19T03:46:10;18.20;99.90
37158;DHT22;23050;51.776;22.638;2022-08-19T03:48:37;18.20;99.90
37158;DHT22;23050;51.776;22.638;2022-08-19T03:51:05;18.20;99.90
37158;DHT22;23050;51.776;22.638;2022-08-19T03:53:32;18.30;99.90
37158;DHT22;23050;51.776;22.638;2022-08-19T03:55:58;18.30;99.90
37158;DHT22;23050;51.776;22.638;2022-08-19T03:58:29;18.30;99.90
37158;DHT22;23050;51.776;22.638;2022-08-19T04:00:58;18.30;99.90
37158;DHT22;23050;51.776;22.638;2022-08-19T04:03:25;18.40;99.90
37158;DHT22;23050;51.776;22.638;2022-08-19T04:05:52;18.40;99.90
37158;DHT22;23050;51.776;22.638;2022-08-19T04:08:19;18.50;99.90
37158;DHT22;23050;51.776;22.638;2022-08-19T04:10:48;18.60;99.90
37158;DHT22;23050;51.776;22.638;2022-08-19T04:13:15;18.60;99.90
37158;DHT22;23050;51.776;22.638;2022-08-19T04:15:42;18.70;99.90
37158;DHT22;23050;51.776;22.638;2022-08-19T04:18:09;18.70;99.90
37158;DHT22;23050;51.776;22.638;2022-08-19T04:20:40;18.80;99.90
37158;DHT22;23050;51.776;22.638;2022-08-19T04:23:06;18.80;99.90
37158;DHT22;23050;51.776;22.638;2022-08-19T04:25:37;18.80;99.90
37158;DHT22;23050;51.776;22.638;2022-08-19T04:28:03;18.80;99.90
37158;DHT22;23050;51.776;22.638;2022-08-19T04:30:28;18.90;99.90
37158;DHT22;23050;51.776;22.638;2022-08-19T04:32:54;19.00;99.90
37158;DHT22;23050;51.776;22.638;2022-08-19T04:35:19;19.00;99.90
37158;DHT22;23050;51.776;22.638;2022-08-19T04:37:45;19.00;99.90
37158;DHT22;23050;51.776;22.638;2022-08-19T04:40:11;19.10;99.90
37158;DHT22;23050;51.776;22.638;2022-08-19T04:42:55;19.20;99.90
37158;DHT22;23050;51.776;22.638;2022-08-19T04:45:21;19.60;99.90
37158;DHT22;23050;51.776;22.638;2022-08-19T04:47:47;20.00;99.90
37158;DHT22;23050;51.776;22.638;2022-08-19T04:50:13;20.50;99.90
37158;DHT22;23050;51.776;22.638;2022-08-19T04:52:39;21.20;99.90
37158;DHT22;23050;51.776;22.638;2022-08-19T04:55:10;22.10;99.90
37158;DHT22;23050;51.776;22.638;2022-08-19T04:57:36;22.90;99.90
37158;DHT22;23050;51.776;22.638;2022-08-19T05:00:07;23.40;99.90
37158;DHT22;23050;51.776;22.638;2022-08-19T05:02:33;23.60;99.90
37158;DHT22;23050;51.776;22.638;2022-08-19T05:04:59;24.10;99.90
37158;DHT22;23050;51.776;22.638;2022-08-19T05:07:27;24.60;99.90
37158;DHT22;23050;51.776;22.638;2022-08-19T05:09:54;25.00;99.90
37158;DHT22;23050;51.776;22.638;2022-08-19T05:12:20;25.40;99.90
37158;DHT22;23050;51.776;22.638;2022-08-19T05:14:46;26.00;99.90
37158;DHT22;23050;51.776;22.638;2022-08-19T05:17:14;26.30;99.90
37158;DHT22;23050;51.776;22.638;2022-08-19T05:19:40;26.90;99.90
37158;DHT22;23050;51.776;22.638;2022-08-19T05:22:24;27.20;99.90
37158;DHT22;23050;51.776;22.638;2022-08-19T05:25:05;27.20;99.90
37158;DHT22;23050;51.776;22.638;2022-08-19T05:27:31;26.70;99.90
37158;DHT22;23050;51.776;22.638;2022-08-19T05:29:57;27.20;99.90
37158;DHT22;23050;51.776;22.638;2022-08-19T05:32:23;27.00;99.90
37158;DHT22;23050;51.776;22.638;2022-08-19T05:34:48;27.10;99.90
37158;DHT22;23050;51.776;22.638;2022-08-19T05:37:14;27.60;99.90
37158;DHT22;23050;51.776;22.638;2022-08-19T05:39:40;28.00;99.90
37158;DHT22;23050;51.776;22.638;2022-08-19T05:42:10;28.30;99.90
37158;DHT22;23050;51.776;22.638;2022-08-19T05:44:39;28.70;99.90
37158;DHT22;23050;51.776;22.638;2022-08-19T05:47:06;28.40;96.90
37158;DHT22;23050;51.776;22.638;2022-08-19T05:49:34;28.30;98.10
37158;DHT22;23050;51.776;22.638;2022-08-19T05:52:04;28.20;98.20
37158;DHT22;23050;51.776;22.638;2022-08-19T05:54:30;28.60;96.60
37158;DHT22;23050;51.776;22.638;2022-08-19T05:56:56;29.10;93.90
37158;DHT22;23050;51.776;22.638;2022-08-19T05:59:22;29.50;89.30
37158;DHT22;23050;51.776;22.638;2022-08-19T06:01:50;29.00;89.50
37158;DHT22;23050;51.776;22.638;2022-08-19T06:04:17;28.80;92.10
37158;DHT22;23050;51.776;22.638;2022-08-19T06:06:45;28.70;91.00
37158;DHT22;23050;51.776;22.638;2022-08-19T06:09:12;29.00;87.50
37158;DHT22;23050;51.776;22.638;2022-08-19T06:11:43;29.30;85.50
37158;DHT22;23050;51.776;22.638;2022-08-19T06:14:13;29.70;72.70
37158;DHT22;23050;51.776;22.638;2022-08-19T06:16:40;29.80;65.20
37158;DHT22;23050;51.776;22.638;2022-08-19T06:19:09;29.60;63.70
37158;DHT22;23050;51.776;22.638;2022-08-19T06:21:36;29.70;65.40
37158;DHT22;23050;51.776;22.638;2022-08-19T06:24:03;30.30;61.80
37158;DHT22;23050;51.776;22.638;2022-08-19T06:26:30;30.40;47.90
37158;DHT22;23050;51.776;22.638;2022-08-19T06:28:56;30.60;54.00
37158;DHT22;23050;51.776;22.638;2022-08-19T06:31:25;31.20;46.30
37158;DHT22;23050;51.776;22.638;2022-08-19T06:33:51;32.00;32.90
37158;DHT22;23050;51.776;22.638;2022-08-19T06:36:25;32.20;29.40
37158;DHT22;23050;51.776;22.638;2022-08-19T06:39:18;32.40;23.50
37158;DHT22;23050;51.776;22.638;2022-08-19T06:41:46;32.20;22.80
37158;DHT22;23050;51.776;22.638;2022-08-19T06:44:13;32.40;25.60
37158;DHT22;23050;51.776;22.638;2022-08-19T06:46:39;32.60;24.40
37158;DHT22;23050;51.776;22.638;2022-08-19T06:49:06;32.50;20.70
37158;DHT22;23050;51.776;22.638;2022-08-19T06:51:34;32.70;18.60
37158;DHT22;23050;51.776;22.638;2022-08-19T06:54:00;33.20;19.70
37158;DHT22;23050;51.776;22.638;2022-08-19T06:56:29;33.80;16.00
37158;DHT22;23050;51.776;22.638;2022-08-19T06:59:03;34.60;11.00
37158;DHT22;23050;51.776;22.638;2022-08-19T07:01:29;34.70;10.20
37158;DHT22;23050;51.776;22.638;2022-08-19T07:03:55;34.40;10.90
37158;DHT22;23050;51.776;22.638;2022-08-19T07:06:21;34.40;9.40
37158;DHT22;23050;51.776;22.638;2022-08-19T07:08:47;34.40;11.30
37158;DHT22;23050;51.776;22.638;2022-08-19T07:11:15;34.70;9.20
37158;DHT22;23050;51.776;22.638;2022-08-19T07:13:43;35.00;7.60
37158;DHT22;23050;51.776;22.638;2022-08-19T07:16:18;35.30;7.10
37158;DHT22;23050;51.776;22.638;2022-08-19T07:18:48;35.40;6.20
37158;DHT22;23050;51.776;22.638;2022-08-19T07:21:27;35.80;6.20
37158;DHT22;23050;51.776;22.638;2022-08-19T07:23:56;36.40;3.10
37158;DHT22;23050;51.776;22.638;2022-08-19T07:26:27;36.90;1.00
37158;DHT22;23050;51.776;22.638;2022-08-19T07:28:53;36.60;1.00
37158;DHT22;23050;51.776;22.638;2022-08-19T07:31:22;35.50;2.40
37158;DHT22;23050;51.776;22.638;2022-08-19T07:33:50;35.20;1.60
37158;DHT22;23050;51.776;22.638;2022-08-19T07:36:19;35.10;4.60
37158;DHT22;23050;51.776;22.638;2022-08-19T07:38:48;35.50;1.00
37158;DHT22;23050;51.776;22.638;2022-08-19T07:41:20;35.90;1.00
37158;DHT22;23050;51.776;22.638;2022-08-19T07:43:48;36.30;1.00
37158;DHT22;23050;51.776;22.638;2022-08-19T07:46:16;36.50;1.00
37158;DHT22;23050;51.776;22.638;2022-08-19T07:48:43;35.90;1.00
37158;DHT22;23050;51.776;22.638;2022-08-19T07:51:11;35.10;1.00
37158;DHT22;23050;51.776;22.638;2022-08-19T07:53:37;34.40;1.00
37158;DHT22;23050;51.776;22.638;2022-08-19T07:56:04;33.70;1.00
37158;DHT22;23050;51.776;22.638;2022-08-19T07:58:32;33.60;2.50
37158;DHT22;23050;51.776;22.638;2022-08-19T08:00:59;33.30;2.50
37158;DHT22;23050;51.776;22.638;2022-08-19T08:03:25;33.30;4.10
37158;DHT22;23050;51.776;22.638;2022-08-19T08:06:12;33.10;4.30
37158;DHT22;23050;51.776;22.638;2022-08-19T08:08:57;33.10;4.30
37158;DHT22;23050;51.776;22.638;2022-08-19T08:14:36;33.70;5.80
37158;DHT22;23050;51.776;22.638;2022-08-19T08:17:04;34.40;1.50
37158;DHT22;23050;51.776;22.638;2022-08-19T08:19:30;34.60;1.00
37158;DHT22;23050;51.776;22.638;2022-08-19T08:21:58;34.90;1.00
37158;DHT22;23050;51.776;22.638;2022-08-19T08:24:25;35.20;1.00
37158;DHT22;23050;51.776;22.638;2022-08-19T08:26:51;35.10;1.00
37158;DHT22;23050;51.776;22.638;2022-08-19T08:29:16;35.30;1.00
37158;DHT22;23050;51.776;22.638;2022-08-19T08:31:43;35.60;1.00
37158;DHT22;23050;51.776;22.638;2022-08-19T08:34:13;36.00;1.00
37158;DHT22;23050;51.776;22.638;2022-08-19T08:36:42;36.10;1.00
37158;DHT22;23050;51.776;22.638;2022-08-19T08:39:13;36.30;1.00
37158;DHT22;23050;51.776;22.638;2022-08-19T08:47:19;35.50;1.00
37158;DHT22;23050;51.776;22.638;2022-08-19T08:49:52;35.60;1.00
37158;DHT22;23050;51.776;22.638;2022-08-19T08:52:27;35.80;1.00
37158;DHT22;23050;51.776;22.638;2022-08-19T08:54:57;36.10;1.00
37158;DHT22;23050;51.776;22.638;2022-08-19T08:57:48;35.50;1.00
37158;DHT22;23050;51.776;22.638;2022-08-19T09:00:29;35.50;1.00
37158;DHT22;23050;51.776;22.638;2022-08-19T09:02:56;35.40;1.00
37158;DHT22;23050;51.776;22.638;2022-08-19T09:05:25;35.10;1.00
37158;DHT22;23050;51.776;22.638;2022-08-19T09:10:52;34.50;1.00
37158;DHT22;23050;51.776;22.638;2022-08-19T09:16:26;34.20;1.00
37158;DHT22;23050;51.776;22.638;2022-08-19T09:18:58;33.40;1.00
37158;DHT22;23050;51.776;22.638;2022-08-19T09:21:28;33.30;1.00
37158;DHT22;23050;51.776;22.638;2022-08-19T09:23:54;33.00;1.00
37158;DHT22;23050;51.776;22.638;2022-08-19T09:26:22;33.00;1.00
37158;DHT22;23050;51.776;22.638;2022-08-19T09:28:50;33.10;1.00
37158;DHT22;23050;51.776;22.638;2022-08-19T09:31:21;33.50;1.00
37158;DHT22;23050;51.776;22.638;2022-08-19T09:33:48;33.70;1.00
37158;DHT22;23050;51.776;22.638;2022-08-19T09:36:16;34.10;1.00
37158;DHT22;23050;51.776;22.638;2022-08-19T09:38:42;34.40;1.00
37158;DHT22;23050;51.776;22.638;2022-08-19T09:41:13;34.70;1.00
37158;DHT22;23050;51.776;22.638;2022-08-19T09:43:40;34.80;1.00
37158;DHT22;23050;51.776;22.638;2022-08-19T09:46:07;34.90;1.00
37158;DHT22;23050;51.776;22.638;2022-08-19T09:48:35;35.20;1.00
37158;DHT22;23050;51.776;22.638;2022-08-19T09:51:14;35.50;1.00
37158;DHT22;23050;51.776;22.638;2022-08-19T09:53:47;35.10;1.00
37158;DHT22;23050;51.776;22.638;2022-08-19T09:56:17;34.60;1.00
37158;DHT22;23050;51.776;22.638;2022-08-19T09:58:43;34.70;1.00
37158;DHT22;23050;51.776;22.638;2022-08-19T10:01:09;34.90;1.00
37158;DHT22;23050;51.776;22.638;2022-08-19T10:03:40;35.10;1.00
37158;DHT22;23050;51.776;22.638;2022-08-19T10:06:06;34.80;1.00
37158;DHT22;23050;51.776;22.638;2022-08-19T10:08:35;34.70;1.00
37158;DHT22;23050;51.776;22.638;2022-08-19T10:11:03;34.70;1.00
37158;DHT22;23050;51.776;22.638;2022-08-19T10:13:31;34.80;1.00
37158;DHT22;23050;51.776;22.638;2022-08-19T10:16:06;34.60;1.00
37158;DHT22;23050;51.776;22.638;2022-08-19T10:18:36;34.10;1.00
37158;DHT22;23050;51.776;22.638;2022-08-19T10:21:07;33.40;1.00
37158;DHT22;23050;51.776;22.638;2022-08-19T10:23:34;32.80;1.00
37158;DHT22;23050;51.776;22.638;2022-08-19T10:26:00;32.80;1.00
37158;DHT22;23050;51.776;22.638;2022-08-19T10:28:26;32.50;1.00
37158;DHT22;23050;51.776;22.638;2022-08-19T10:30:52;32.60;1.00
37158;DHT22;23050;51.776;22.638;2022-08-19T10:33:18;32.60;1.00
37158;DHT22;23050;51.776;22.638;2022-08-19T10:35:44;33.20;1.00
37158;DHT22;23050;51.776;22.638;2022-08-19T10:38:12;33.50;1.00
37158;DHT22;23050;51.776;22.638;2022-08-19T10:40:38;33.90;1.00
37158;DHT22;23050;51.776;22.638;2022-08-19T10:43:03;34.30;1.00
37158;DHT22;23050;51.776;22.638;2022-08-19T10:45:29;34.30;1.00
37158;DHT22;23050;51.776;22.638;2022-08-19T10:47:55;34.90;1.00
37158;DHT22;23050;51.776;22.638;2022-08-19T10:50:20;35.10;1.00
37158;DHT22;23050;51.776;22.638;2022-08-19T10:53:07;34.90;1.00
37158;DHT22;23050;51.776;22.638;2022-08-19T10:55:36;34.50;1.00
37158;DHT22;23050;51.776;22.638;2022-08-19T10:58:22;34.70;1.00
37158;DHT22;23050;51.776;22.638;2022-08-19T11:00:56;34.80;1.00
37158;DHT22;23050;51.776;22.638;2022-08-19T11:03:22;35.20;1.00
37158;DHT22;23050;51.776;22.638;2022-08-19T11:06:07;35.00;1.00
37158;DHT22;23050;51.776;22.638;2022-08-19T11:08:34;34.50;1.00
37158;DHT22;23050;51.776;22.638;2022-08-19T11:11:04;34.40;1.00
37158;DHT22;23050;51.776;22.638;2022-08-19T11:13:31;33.90;1.00
37158;DHT22;23050;51.776;22.638;2022-08-19T11:16:20;34.40;1.00
37158;DHT22;23050;51.776;22.638;2022-08-19T11:18:48;34.10;1.00
37158;DHT22;23050;51.776;22.638;2022-08-19T11:21:22;34.20;1.00
37158;DHT22;23050;51.776;22.638;2022-08-19T11:23:50;34.40;1.00
37158;DHT22;23050;51.776;22.638;2022-08-19T11:26:18;34.50;1.00
37158;DHT22;23050;51.776;22.638;2022-08-19T11:28:44;34.50;1.00
37158;DHT22;23050;51.776;22.638;2022-08-19T11:31:18;34.50;1.00
37158;DHT22;23050;51.776;22.638;2022-08-19T11:33:45;34.80;1.00
37158;DHT22;23050;51.776;22.638;2022-08-19T11:36:12;35.20;1.00
37158;DHT22;23050;51.776;22.638;2022-08-19T11:38:38;35.10;1.00
37158;DHT22;23050;51.776;22.638;2022-08-19T11:41:06;35.30;1.00
37158;DHT22;23050;51.776;22.638;2022-08-19T11:43:34;35.10;1.00
37158;DHT22;23050;51.776;22.638;2022-08-19T11:45:59;34.80;1.00
37158;DHT22;23050;51.776;22.638;2022-08-19T11:48:28;34.60;1.00
37158;DHT22;23050;51.776;22.638;2022-08-19T11:50:54;35.10;1.00
37158;DHT22;23050;51.776;22.638;2022-08-19T11:53:22;35.40;1.00
37158;DHT22;23050;51.776;22.638;2022-08-19T11:55:48;35.40;1.00
37158;DHT22;23050;51.776;22.638;2022-08-19T11:58:15;35.30;1.00
37158;DHT22;23050;51.776;22.638;2022-08-19T12:00:41;35.40;1.00
37158;DHT22;23050;51.776;22.638;2022-08-19T12:03:07;35.00;1.00
37158;DHT22;23050;51.776;22.638;2022-08-19T12:05:35;34.90;1.00
37158;DHT22;23050;51.776;22.638;2022-08-19T12:08:01;34.30;1.00
37158;DHT22;23050;51.776;22.638;2022-08-19T12:10:27;34.20;1.00
37158;DHT22;23050;51.776;22.638;2022-08-19T12:12:52;34.30;1.00
37158;DHT22;23050;51.776;22.638;2022-08-19T12:15:18;34.10;1.00
37158;DHT22;23050;51.776;22.638;2022-08-19T12:17:44;34.20;1.00
37158;DHT22;23050;51.776;22.638;2022-08-19T12:20:10;34.60;1.00
37158;DHT22;23050;51.776;22.638;2022-08-19T12:22:37;34.60;1.00
37158;DHT22;23050;51.776;22.638;2022-08-19T12:25:04;34.20;1.00
37158;DHT22;23050;51.776;22.638;2022-08-19T12:27:30;34.30;1.00
37158;DHT22;23050;51.776;22.638;2022-08-19T12:29:56;34.10;1.00
37158;DHT22;23050;51.776;22.638;2022-08-19T12:32:22;34.30;1.00
37158;DHT22;23050;51.776;22.638;2022-08-19T12:34:50;33.90;1.00
37158;DHT22;23050;51.776;22.638;2022-08-19T12:37:15;34.00;1.00
37158;DHT22;23050;51.776;22.638;2022-08-19T12:39:42;34.10;1.00
37158;DHT22;23050;51.776;22.638;2022-08-19T12:42:10;34.10;1.00
37158;DHT22;23050;51.776;22.638;2022-08-19T12:44:38;34.20;1.00
37158;DHT22;23050;51.776;22.638;2022-08-19T12:47:05;34.30;1.00
37158;DHT22;23050;51.776;22.638;2022-08-19T12:49:31;34.50;1.00
37158;DHT22;23050;51.776;22.638;2022-08-19T12:52:05;34.40;1.00
37158;DHT22;23050;51.776;22.638;2022-08-19T12:54:31;34.40;1.00
37158;DHT22;23050;51.776;22.638;2022-08-19T12:56:58;34.70;1.00
37158;DHT22;23050;51.776;22.638;2022-08-19T12:59:25;34.70;1.00
37158;DHT22;23050;51.776;22.638;2022-08-19T13:01:51;34.60;1.00
37158;DHT22;23050;51.776;22.638;2022-08-19T13:04:17;34.70;1.00
37158;DHT22;23050;51.776;22.638;2022-08-19T13:06:42;35.00;1.00
37158;DHT22;23050;51.776;22.638;2022-08-19T13:09:09;34.80;1.00
37158;DHT22;23050;51.776;22.638;2022-08-19T13:11:35;34.50;1.00
37158;DHT22;23050;51.776;22.638;2022-08-19T13:14:02;34.30;1.00
37158;DHT22;23050;51.776;22.638;2022-08-19T13:16:28;33.80;1.00
37158;DHT22;23050;51.776;22.638;2022-08-19T13:18:55;33.90;1.00
37158;DHT22;23050;51.776;22.638;2022-08-19T13:21:24;33.30;1.00
37158;DHT22;23050;51.776;22.638;2022-08-19T13:23:51;33.20;1.00
37158;DHT22;23050;51.776;22.638;2022-08-19T13:26:18;33.20;1.00
37158;DHT22;23050;51.776;22.638;2022-08-19T13:28:44;33.70;1.00
37158;DHT22;23050;51.776;22.638;2022-08-19T13:31:32;34.00;1.00
37158;DHT22;23050;51.776;22.638;2022-08-19T13:34:18;34.00;1.00
37158;DHT22;23050;51.776;22.638;2022-08-19T13:36:44;33.90;1.00
37158;DHT22;23050;51.776;22.638;2022-08-19T13:39:10;33.90;1.00
37158;DHT22;23050;51.776;22.638;2022-08-19T13:41:37;33.90;1.00
37158;DHT22;23050;51.776;22.638;2022-08-19T13:44:04;33.90;1.00
37158;DHT22;23050;51.776;22.638;2022-08-19T13:46:31;33.40;1.00
37158;DHT22;23050;51.776;22.638;2022-08-19T13:48:57;33.50;1.00
37158;DHT22;23050;51.776;22.638;2022-08-19T13:51:23;33.20;1.00
37158;DHT22;23050;51.776;22.638;2022-08-19T13:53:49;32.80;1.00
37158;DHT22;23050;51.776;22.638;2022-08-19T13:56:17;33.00;1.00
37158;DHT22;23050;51.776;22.638;2022-08-19T13:58:45;32.90;1.00
37158;DHT22;23050;51.776;22.638;2022-08-19T14:01:11;33.20;1.00
37158;DHT22;23050;51.776;22.638;2022-08-19T14:03:41;33.60;1.00
37158;DHT22;23050;51.776;22.638;2022-08-19T14:06:06;34.00;1.00
37158;DHT22;23050;51.776;22.638;2022-08-19T14:08:32;33.60;1.00
37158;DHT22;23050;51.776;22.638;2022-08-19T14:10:58;33.30;1.00
37158;DHT22;23050;51.776;22.638;2022-08-19T14:13:24;33.30;1.00
37158;DHT22;23050;51.776;22.638;2022-08-19T14:15:51;33.40;1.00
37158;DHT22;23050;51.776;22.638;2022-08-19T14:18:18;33.40;1.00
37158;DHT22;23050;51.776;22.638;2022-08-19T14:20:44;33.10;1.00
37158;DHT22;23050;51.776;22.638;2022-08-19T14:23:10;32.70;1.00
37158;DHT22;23050;51.776;22.638;2022-08-19T14:25:37;32.50;1.00
37158;DHT22;23050;51.776;22.638;2022-08-19T14:28:03;32.80;1.00
37158;DHT22;23050;51.776;22.638;2022-08-19T14:30:31;32.80;1.00
37158;DHT22;23050;51.776;22.638;2022-08-19T14:32:58;32.80;1.00
37158;DHT22;23050;51.776;22.638;2022-08-19T14:35:26;33.00;1.00
37158;DHT22;23050;51.776;22.638;2022-08-19T14:37:53;33.30;1.00
37158;DHT22;23050;51.776;22.638;2022-08-19T14:40:25;33.10;1.00
37158;DHT22;23050;51.776;22.638;2022-08-19T14:42:56;33.20;1.00
37158;DHT22;23050;51.776;22.638;2022-08-19T14:45:29;33.10;1.00
37158;DHT22;23050;51.776;22.638;2022-08-19T14:47:56;33.00;1.00
37158;DHT22;23050;51.776;22.638;2022-08-19T14:50:21;32.80;1.00
37158;DHT22;23050;51.776;22.638;2022-08-19T14:52:48;33.10;1.00
37158;DHT22;23050;51.776;22.638;2022-08-19T14:55:15;32.90;1.00
37158;DHT22;23050;51.776;22.638;2022-08-19T14:57:42;32.70;1.00
37158;DHT22;23050;51.776;22.638;2022-08-19T15:00:09;32.50;1.00
37158;DHT22;23050;51.776;22.638;2022-08-19T15:02:41;32.50;1.00
37158;DHT22;23050;51.776;22.638;2022-08-19T15:05:09;32.50;1.00
37158;DHT22;23050;51.776;22.638;2022-08-19T15:07:36;32.00;1.00
37158;DHT22;23050;51.776;22.638;2022-08-19T15:10:04;31.60;1.00
37158;DHT22;23050;51.776;22.638;2022-08-19T15:12:33;31.50;1.00
37158;DHT22;23050;51.776;22.638;2022-08-19T15:14:59;31.70;1.00
37158;DHT22;23050;51.776;22.638;2022-08-19T15:17:28;31.90;1.00
37158;DHT22;23050;51.776;22.638;2022-08-19T15:19:55;31.80;1.00
37158;DHT22;23050;51.776;22.638;2022-08-19T15:22:25;31.80;1.00
37158;DHT22;23050;51.776;22.638;2022-08-19T15:24:51;31.40;1.00
37158;DHT22;23050;51.776;22.638;2022-08-19T15:27:19;31.30;1.00
37158;DHT22;23050;51.776;22.638;2022-08-19T15:29:45;31.20;1.00
37158;DHT22;23050;51.776;22.638;2022-08-19T15:32:11;31.20;1.00
37158;DHT22;23050;51.776;22.638;2022-08-19T15:34:37;30.80;1.00
37158;DHT22;23050;51.776;22.638;2022-08-19T15:37:03;30.90;1.00
37158;DHT22;23050;51.776;22.638;2022-08-19T15:39:32;31.00;1.00
37158;DHT22;23050;51.776;22.638;2022-08-19T15:41:57;31.10;1.00
37158;DHT22;23050;51.776;22.638;2022-08-19T15:44:25;30.60;1.00
37158;DHT22;23050;51.776;22.638;2022-08-19T15:46:50;30.50;1.00